sensor_id;sensor_type;location;lat;lon;timestamp;P1;durP1;ratioP1;P2;durP2;ratioP2
21833;SDS011;11079;51.092;3.458;2022-07-29T00:00:08;3.22;;;2.30;;
21833;SDS011;11079;51.092;3.458;2022-07-29T00:02:35;4.80;;;2.10;;
21833;SDS011;11079;51.092;3.458;2022-07-29T00:05:02;2.78;;;2.35;;
21833;SDS011;11079;51.092;3.458;2022-07-29T00:07:28;5.65;;;2.40;;
21833;SDS011;11079;51.092;3.458;2022-07-29T00:09:54;5.55;;;2.05;;
21833;SDS011;11079;51.092;3.458;2022-07-29T00:12:21;4.88;;;2.20;;
21833;SDS011;11079;51.092;3.458;2022-07-29T00:14:48;5.47;;;2.20;;
21833;SDS011;11079;51.092;3.458;2022-07-29T00:17:14;4.13;;;2.30;;
21833;SDS011;11079;51.092;3.458;2022-07-29T00:19:39;7.32;;;2.63;;
21833;SDS011;11079;51.092;3.458;2022-07-29T00:22:05;4.75;;;2.40;;
21833;SDS011;11079;51.092;3.458;2022-07-29T00:24:31;3.35;;;2.45;;
21833;SDS011;11079;51.092;3.458;2022-07-29T00:26:57;4.13;;;2.72;;
21833;SDS011;11079;51.092;3.458;2022-07-29T00:29:22;5.25;;;2.55;;
21833;SDS011;11079;51.092;3.458;2022-07-29T00:31:48;5.70;;;2.83;;
21833;SDS011;11079;51.092;3.458;2022-07-29T00:34:19;6.63;;;3.25;;
21833;SDS011;11079;51.092;3.458;2022-07-29T00:37:04;9.27;;;3.75;;
21833;SDS011;11079;51.092;3.458;2022-07-29T00:39:29;5.53;;;3.38;;
21833;SDS011;11079;51.092;3.458;2022-07-29T00:41:55;5.18;;;3.38;;
21833;SDS011;11079;51.092;3.458;2022-07-29T00:44:21;4.95;;;3.72;;
21833;SDS011;11079;51.092;3.458;2022-07-29T00:46:49;7.53;;;2.90;;
21833;SDS011;11079;51.092;3.458;2022-07-29T00:49:14;9.20;;;3.30;;
21833;SDS011;11079;51.092;3.458;2022-07-29T00:51:40;4.32;;;3.25;;
21833;SDS011;11079;51.092;3.458;2022-07-29T00:54:06;4.65;;;3.10;;
21833;SDS011;11079;51.092;3.458;2022-07-29T00:56:32;7.63;;;3.58;;
21833;SDS011;11079;51.092;3.458;2022-07-29T00:58:58;9.05;;;3.45;;
21833;SDS011;11079;51.092;3.458;2022-07-29T01:01:25;4.88;;;3.28;;
21833;SDS011;11079;51.092;3.458;2022-07-29T01:03:51;6.32;;;3.63;;
21833;SDS011;11079;51.092;3.458;2022-07-29T01:06:17;4.43;;;3.28;;
21833;SDS011;11079;51.092;3.458;2022-07-29T01:08:44;5.57;;;3.40;;
21833;SDS011;11079;51.092;3.458;2022-07-29T01:11:14;4.32;;;3.15;;
21833;SDS011;11079;51.092;3.458;2022-07-29T01:13:41;6.97;;;4.15;;
21833;SDS011;11079;51.092;3.458;2022-07-29T01:16:18;6.05;;;3.45;;
21833;SDS011;11079;51.092;3.458;2022-07-29T01:18:56;6.55;;;3.63;;
21833;SDS011;11079;51.092;3.458;2022-07-29T01:27:16;8.07;;;3.72;;
21833;SDS011;11079;51.092;3.458;2022-07-29T01:30:06;4.25;;;3.28;;
21833;SDS011;11079;51.092;3.458;2022-07-29T01:32:33;6.47;;;3.50;;
21833;SDS011;11079;51.092;3.458;2022-07-29T01:35:03;5.20;;;3.33;;
21833;SDS011;11079;51.092;3.458;2022-07-29T01:37:46;9.45;;;3.88;;
21833;SDS011;11079;51.092;3.458;2022-07-29T01:40:20;7.57;;;3.55;;
21833;SDS011;11079;51.092;3.458;2022-07-29T01:42:52;5.15;;;3.40;;
21833;SDS011;11079;51.092;3.458;2022-07-29T01:45:23;6.38;;;3.45;;
21833;SDS011;11079;51.092;3.458;2022-07-29T01:47:58;5.95;;;3.47;;
21833;SDS011;11079;51.092;3.458;2022-07-29T01:50:33;7.70;;;3.70;;
21833;SDS011;11079;51.092;3.458;2022-07-29T01:53:05;4.97;;;2.88;;
21833;SDS011;11079;51.092;3.458;2022-07-29T01:55:37;6.40;;;3.28;;
21833;SDS011;11079;51.092;3.458;2022-07-29T01:58:06;4.95;;;3.03;;
21833;SDS011;11079;51.092;3.458;2022-07-29T02:00:33;4.72;;;2.92;;
21833;SDS011;11079;51.092;3.458;2022-07-29T02:03:11;6.47;;;3.20;;
21833;SDS011;11079;51.092;3.458;2022-07-29T02:05:40;4.85;;;3.10;;
21833;SDS011;11079;51.092;3.458;2022-07-29T02:08:09;3.72;;;3.10;;
21833;SDS011;11079;51.092;3.458;2022-07-29T02:10:35;5.50;;;3.00;;
21833;SDS011;11079;51.092;3.458;2022-07-29T02:13:04;7.72;;;3.63;;
21833;SDS011;11079;51.092;3.458;2022-07-29T02:15:32;6.57;;;3.50;;
21833;SDS011;11079;51.092;3.458;2022-07-29T02:18:05;4.40;;;2.72;;
21833;SDS011;11079;51.092;3.458;2022-07-29T02:20:33;6.20;;;2.83;;
21833;SDS011;11079;51.092;3.458;2022-07-29T02:23:00;5.30;;;3.30;;
21833;SDS011;11079;51.092;3.458;2022-07-29T02:25:27;7.00;;;3.83;;
21833;SDS011;11079;51.092;3.458;2022-07-29T02:27:54;6.32;;;3.40;;
21833;SDS011;11079;51.092;3.458;2022-07-29T02:30:21;4.07;;;3.17;;
21833;SDS011;11079;51.092;3.458;2022-07-29T02:32:48;4.63;;;3.00;;
21833;SDS011;11079;51.092;3.458;2022-07-29T02:35:15;4.30;;;3.38;;
21833;SDS011;11079;51.092;3.458;2022-07-29T02:37:47;5.43;;;3.17;;
21833;SDS011;11079;51.092;3.458;2022-07-29T02:40:35;5.43;;;3.30;;
21833;SDS011;11079;51.092;3.458;2022-07-29T02:43:04;4.22;;;3.15;;
21833;SDS011;11079;51.092;3.458;2022-07-29T02:45:32;5.15;;;2.92;;
21833;SDS011;11079;51.092;3.458;2022-07-29T02:47:59;4.47;;;2.85;;
21833;SDS011;11079;51.092;3.458;2022-07-29T02:50:34;8.10;;;3.03;;
21833;SDS011;11079;51.092;3.458;2022-07-29T02:53:09;4.63;;;2.92;;
21833;SDS011;11079;51.092;3.458;2022-07-29T02:56:14;5.40;;;3.10;;
21833;SDS011;11079;51.092;3.458;2022-07-29T02:58:39;7.22;;;3.47;;
21833;SDS011;11079;51.092;3.458;2022-07-29T03:01:11;6.15;;;2.83;;
21833;SDS011;11079;51.092;3.458;2022-07-29T03:03:45;4.95;;;3.50;;
21833;SDS011;11079;51.092;3.458;2022-07-29T03:06:13;4.53;;;3.38;;
21833;SDS011;11079;51.092;3.458;2022-07-29T03:08:40;4.03;;;3.63;;
21833;SDS011;11079;51.092;3.458;2022-07-29T03:11:07;6.00;;;2.92;;
21833;SDS011;11079;51.092;3.458;2022-07-29T03:13:34;9.55;;;4.07;;
21833;SDS011;11079;51.092;3.458;2022-07-29T03:16:02;6.93;;;3.45;;
21833;SDS011;11079;51.092;3.458;2022-07-29T03:18:29;4.45;;;3.05;;
21833;SDS011;11079;51.092;3.458;2022-07-29T03:20:56;3.70;;;3.40;;
21833;SDS011;11079;51.092;3.458;2022-07-29T03:23:22;5.00;;;3.35;;
21833;SDS011;11079;51.092;3.458;2022-07-29T03:25:52;4.68;;;3.70;;
21833;SDS011;11079;51.092;3.458;2022-07-29T03:28:18;5.78;;;3.53;;
21833;SDS011;11079;51.092;3.458;2022-07-29T03:30:44;6.57;;;3.67;;
21833;SDS011;11079;51.092;3.458;2022-07-29T03:33:10;5.90;;;3.72;;
21833;SDS011;11079;51.092;3.458;2022-07-29T03:35:36;4.82;;;3.60;;
21833;SDS011;11079;51.092;3.458;2022-07-29T03:38:01;3.88;;;3.45;;
21833;SDS011;11079;51.092;3.458;2022-07-29T03:43:00;8.65;;;3.78;;
21833;SDS011;11079;51.092;3.458;2022-07-29T03:45:30;5.97;;;3.42;;
21833;SDS011;11079;51.092;3.458;2022-07-29T03:48:02;4.45;;;3.70;;
21833;SDS011;11079;51.092;3.458;2022-07-29T03:50:35;6.35;;;3.80;;
21833;SDS011;11079;51.092;3.458;2022-07-29T03:53:01;3.78;;;3.15;;
21833;SDS011;11079;51.092;3.458;2022-07-29T03:55:30;6.35;;;3.83;;
21833;SDS011;11079;51.092;3.458;2022-07-29T03:58:02;5.20;;;3.83;;
21833;SDS011;11079;51.092;3.458;2022-07-29T04:00:28;8.18;;;3.78;;
21833;SDS011;11079;51.092;3.458;2022-07-29T04:02:54;6.15;;;3.90;;
21833;SDS011;11079;51.092;3.458;2022-07-29T04:05:21;5.15;;;3.88;;
21833;SDS011;11079;51.092;3.458;2022-07-29T04:07:47;4.78;;;3.75;;
21833;SDS011;11079;51.092;3.458;2022-07-29T04:10:13;7.15;;;3.75;;
21833;SDS011;11079;51.092;3.458;2022-07-29T04:12:43;7.80;;;4.03;;
21833;SDS011;11079;51.092;3.458;2022-07-29T04:15:10;8.05;;;4.10;;
21833;SDS011;11079;51.092;3.458;2022-07-29T04:17:36;4.57;;;3.85;;
21833;SDS011;11079;51.092;3.458;2022-07-29T04:20:04;9.07;;;4.20;;
21833;SDS011;11079;51.092;3.458;2022-07-29T04:22:30;8.50;;;5.53;;
21833;SDS011;11079;51.092;3.458;2022-07-29T04:24:56;10.98;;;5.72;;
21833;SDS011;11079;51.092;3.458;2022-07-29T04:27:22;9.90;;;5.15;;
21833;SDS011;11079;51.092;3.458;2022-07-29T04:29:48;7.55;;;4.85;;
21833;SDS011;11079;51.092;3.458;2022-07-29T04:32:13;6.05;;;4.68;;
21833;SDS011;11079;51.092;3.458;2022-07-29T04:34:39;6.40;;;5.15;;
21833;SDS011;11079;51.092;3.458;2022-07-29T04:37:05;7.30;;;4.60;;
21833;SDS011;11079;51.092;3.458;2022-07-29T04:39:33;5.80;;;4.80;;
21833;SDS011;11079;51.092;3.458;2022-07-29T04:41:59;5.47;;;4.35;;
21833;SDS011;11079;51.092;3.458;2022-07-29T04:44:25;7.65;;;5.25;;
21833;SDS011;11079;51.092;3.458;2022-07-29T04:46:51;4.88;;;4.43;;
21833;SDS011;11079;51.092;3.458;2022-07-29T04:49:17;6.50;;;4.90;;
21833;SDS011;11079;51.092;3.458;2022-07-29T04:51:42;7.78;;;4.50;;
21833;SDS011;11079;51.092;3.458;2022-07-29T04:54:08;5.45;;;4.57;;
21833;SDS011;11079;51.092;3.458;2022-07-29T04:56:34;7.03;;;4.80;;
21833;SDS011;11079;51.092;3.458;2022-07-29T04:59:01;5.78;;;4.20;;
21833;SDS011;11079;51.092;3.458;2022-07-29T05:01:27;7.20;;;4.57;;
21833;SDS011;11079;51.092;3.458;2022-07-29T05:03:52;5.38;;;4.57;;
21833;SDS011;11079;51.092;3.458;2022-07-29T05:06:18;6.22;;;4.55;;
21833;SDS011;11079;51.092;3.458;2022-07-29T05:08:46;5.15;;;3.78;;
21833;SDS011;11079;51.092;3.458;2022-07-29T05:11:12;11.15;;;4.28;;
21833;SDS011;11079;51.092;3.458;2022-07-29T05:13:39;8.52;;;3.97;;
21833;SDS011;11079;51.092;3.458;2022-07-29T05:16:04;8.50;;;4.10;;
21833;SDS011;11079;51.092;3.458;2022-07-29T05:18:30;5.85;;;4.20;;
21833;SDS011;11079;51.092;3.458;2022-07-29T05:20:57;7.13;;;4.22;;
21833;SDS011;11079;51.092;3.458;2022-07-29T05:23:23;9.07;;;3.78;;
21833;SDS011;11079;51.092;3.458;2022-07-29T05:25:48;6.35;;;3.22;;
21833;SDS011;11079;51.092;3.458;2022-07-29T05:28:15;5.97;;;3.28;;
21833;SDS011;11079;51.092;3.458;2022-07-29T05:30:42;4.40;;;3.20;;
21833;SDS011;11079;51.092;3.458;2022-07-29T05:33:09;9.70;;;3.50;;
21833;SDS011;11079;51.092;3.458;2022-07-29T05:35:38;5.32;;;3.17;;
21833;SDS011;11079;51.092;3.458;2022-07-29T05:38:04;5.28;;;3.00;;
21833;SDS011;11079;51.092;3.458;2022-07-29T05:40:30;5.57;;;2.92;;
21833;SDS011;11079;51.092;3.458;2022-07-29T05:42:55;3.58;;;2.65;;
21833;SDS011;11079;51.092;3.458;2022-07-29T05:45:21;5.32;;;3.05;;
21833;SDS011;11079;51.092;3.458;2022-07-29T05:47:48;4.45;;;2.85;;
21833;SDS011;11079;51.092;3.458;2022-07-29T05:50:14;5.65;;;3.15;;
21833;SDS011;11079;51.092;3.458;2022-07-29T05:52:42;4.82;;;2.70;;
21833;SDS011;11079;51.092;3.458;2022-07-29T05:55:08;5.20;;;2.80;;
21833;SDS011;11079;51.092;3.458;2022-07-29T05:57:34;4.72;;;2.40;;
21833;SDS011;11079;51.092;3.458;2022-07-29T06:00:00;4.07;;;2.75;;
21833;SDS011;11079;51.092;3.458;2022-07-29T06:02:25;2.72;;;2.13;;
21833;SDS011;11079;51.092;3.458;2022-07-29T06:04:55;6.53;;;2.70;;
21833;SDS011;11079;51.092;3.458;2022-07-29T06:07:21;5.53;;;2.72;;
21833;SDS011;11079;51.092;3.458;2022-07-29T06:09:47;5.68;;;2.40;;
21833;SDS011;11079;51.092;3.458;2022-07-29T06:12:12;7.43;;;2.88;;
21833;SDS011;11079;51.092;3.458;2022-07-29T06:14:39;4.00;;;2.33;;
21833;SDS011;11079;51.092;3.458;2022-07-29T06:17:06;7.50;;;2.42;;
21833;SDS011;11079;51.092;3.458;2022-07-29T06:19:33;4.55;;;2.65;;
21833;SDS011;11079;51.092;3.458;2022-07-29T06:22:01;7.63;;;2.55;;
21833;SDS011;11079;51.092;3.458;2022-07-29T06:24:30;5.47;;;2.25;;
21833;SDS011;11079;51.092;3.458;2022-07-29T06:26:55;3.33;;;2.25;;
21833;SDS011;11079;51.092;3.458;2022-07-29T06:29:21;6.60;;;2.38;;
21833;SDS011;11079;51.092;3.458;2022-07-29T06:31:48;5.00;;;2.38;;
21833;SDS011;11079;51.092;3.458;2022-07-29T06:34:14;3.45;;;2.40;;
21833;SDS011;11079;51.092;3.458;2022-07-29T06:36:40;3.88;;;2.53;;
21833;SDS011;11079;51.092;3.458;2022-07-29T06:39:06;3.60;;;2.25;;
21833;SDS011;11079;51.092;3.458;2022-07-29T06:41:32;3.08;;;2.30;;
21833;SDS011;11079;51.092;3.458;2022-07-29T06:43:58;4.22;;;2.17;;
21833;SDS011;11079;51.092;3.458;2022-07-29T06:46:24;5.60;;;2.55;;
21833;SDS011;11079;51.092;3.458;2022-07-29T06:48:50;3.47;;;1.92;;
21833;SDS011;11079;51.092;3.458;2022-07-29T06:51:16;4.85;;;2.47;;
21833;SDS011;11079;51.092;3.458;2022-07-29T06:53:42;3.80;;;2.42;;
21833;SDS011;11079;51.092;3.458;2022-07-29T06:56:08;4.60;;;2.40;;
21833;SDS011;11079;51.092;3.458;2022-07-29T06:58:34;4.65;;;2.40;;
21833;SDS011;11079;51.092;3.458;2022-07-29T07:01:01;5.40;;;2.35;;
21833;SDS011;11079;51.092;3.458;2022-07-29T07:03:28;3.70;;;2.28;;
21833;SDS011;11079;51.092;3.458;2022-07-29T07:05:54;6.70;;;2.33;;
21833;SDS011;11079;51.092;3.458;2022-07-29T07:08:20;4.50;;;2.72;;
21833;SDS011;11079;51.092;3.458;2022-07-29T07:10:47;3.55;;;2.25;;
21833;SDS011;11079;51.092;3.458;2022-07-29T07:13:13;3.50;;;2.20;;
21833;SDS011;11079;51.092;3.458;2022-07-29T07:15:39;7.60;;;2.97;;
21833;SDS011;11079;51.092;3.458;2022-07-29T07:18:06;4.82;;;2.45;;
21833;SDS011;11079;51.092;3.458;2022-07-29T07:20:32;3.97;;;2.40;;
21833;SDS011;11079;51.092;3.458;2022-07-29T07:22:59;3.53;;;2.35;;
21833;SDS011;11079;51.092;3.458;2022-07-29T07:25:25;3.40;;;2.88;;
21833;SDS011;11079;51.092;3.458;2022-07-29T07:27:51;6.50;;;2.60;;
21833;SDS011;11079;51.092;3.458;2022-07-29T07:30:16;5.10;;;2.67;;
21833;SDS011;11079;51.092;3.458;2022-07-29T07:32:42;6.18;;;2.95;;
21833;SDS011;11079;51.092;3.458;2022-07-29T07:35:08;4.93;;;2.85;;
21833;SDS011;11079;51.092;3.458;2022-07-29T07:37:35;4.93;;;2.85;;
21833;SDS011;11079;51.092;3.458;2022-07-29T07:40:02;7.10;;;2.40;;
21833;SDS011;11079;51.092;3.458;2022-07-29T07:42:28;6.40;;;2.42;;
21833;SDS011;11079;51.092;3.458;2022-07-29T07:44:54;4.95;;;2.83;;
21833;SDS011;11079;51.092;3.458;2022-07-29T07:47:20;3.47;;;2.38;;
21833;SDS011;11079;51.092;3.458;2022-07-29T07:49:49;5.38;;;2.55;;
21833;SDS011;11079;51.092;3.458;2022-07-29T07:52:16;6.53;;;2.38;;
21833;SDS011;11079;51.092;3.458;2022-07-29T07:54:43;6.85;;;2.30;;
21833;SDS011;11079;51.092;3.458;2022-07-29T07:57:10;2.90;;;2.00;;
21833;SDS011;11079;51.092;3.458;2022-07-29T07:59:39;3.58;;;2.42;;
21833;SDS011;11079;51.092;3.458;2022-07-29T08:02:06;3.65;;;2.60;;
21833;SDS011;11079;51.092;3.458;2022-07-29T08:04:33;4.82;;;2.47;;
21833;SDS011;11079;51.092;3.458;2022-07-29T08:06:59;5.65;;;2.40;;
21833;SDS011;11079;51.092;3.458;2022-07-29T08:09:26;3.20;;;2.15;;
21833;SDS011;11079;51.092;3.458;2022-07-29T08:11:53;3.58;;;2.50;;
21833;SDS011;11079;51.092;3.458;2022-07-29T08:14:18;3.58;;;2.30;;
21833;SDS011;11079;51.092;3.458;2022-07-29T08:16:44;7.88;;;2.50;;
21833;SDS011;11079;51.092;3.458;2022-07-29T08:19:10;5.65;;;2.20;;
21833;SDS011;11079;51.092;3.458;2022-07-29T08:21:36;4.53;;;2.10;;
21833;SDS011;11079;51.092;3.458;2022-07-29T08:24:03;3.75;;;2.30;;
21833;SDS011;11079;51.092;3.458;2022-07-29T08:26:48;4.47;;;2.30;;
21833;SDS011;11079;51.092;3.458;2022-07-29T08:29:14;4.70;;;2.65;;
21833;SDS011;11079;51.092;3.458;2022-07-29T08:31:40;3.17;;;2.20;;
21833;SDS011;11079;51.092;3.458;2022-07-29T08:34:06;3.90;;;1.73;;
21833;SDS011;11079;51.092;3.458;2022-07-29T08:36:32;3.10;;;1.92;;
21833;SDS011;11079;51.092;3.458;2022-07-29T08:38:58;7.35;;;2.17;;
21833;SDS011;11079;51.092;3.458;2022-07-29T08:41:25;3.78;;;2.38;;
21833;SDS011;11079;51.092;3.458;2022-07-29T08:43:51;6.57;;;2.20;;
21833;SDS011;11079;51.092;3.458;2022-07-29T08:46:17;5.28;;;2.28;;
21833;SDS011;11079;51.092;3.458;2022-07-29T08:48:44;7.03;;;2.28;;
21833;SDS011;11079;51.092;3.458;2022-07-29T08:51:14;5.78;;;2.00;;
21833;SDS011;11079;51.092;3.458;2022-07-29T08:53:42;4.10;;;1.83;;
21833;SDS011;11079;51.092;3.458;2022-07-29T08:56:12;7.03;;;2.20;;
21833;SDS011;11079;51.092;3.458;2022-07-29T08:58:38;3.67;;;1.80;;
21833;SDS011;11079;51.092;3.458;2022-07-29T09:01:04;4.00;;;1.92;;
21833;SDS011;11079;51.092;3.458;2022-07-29T09:03:32;4.05;;;1.90;;
21833;SDS011;11079;51.092;3.458;2022-07-29T09:06:01;13.18;;;2.63;;
21833;SDS011;11079;51.092;3.458;2022-07-29T09:08:28;6.25;;;2.17;;
21833;SDS011;11079;51.092;3.458;2022-07-29T09:10:55;3.30;;;1.63;;
21833;SDS011;11079;51.092;3.458;2022-07-29T09:13:22;5.50;;;1.83;;
21833;SDS011;11079;51.092;3.458;2022-07-29T09:15:48;3.28;;;1.45;;
21833;SDS011;11079;51.092;3.458;2022-07-29T09:21:03;5.15;;;1.73;;
21833;SDS011;11079;51.092;3.458;2022-07-29T09:24:08;5.05;;;1.90;;
21833;SDS011;11079;51.092;3.458;2022-07-29T09:26:39;8.65;;;2.20;;
21833;SDS011;11079;51.092;3.458;2022-07-29T09:29:13;2.70;;;1.65;;
21833;SDS011;11079;51.092;3.458;2022-07-29T09:31:45;5.80;;;2.05;;
21833;SDS011;11079;51.092;3.458;2022-07-29T09:34:13;6.05;;;1.75;;
21833;SDS011;11079;51.092;3.458;2022-07-29T09:36:44;3.58;;;1.90;;
21833;SDS011;11079;51.092;3.458;2022-07-29T09:39:11;4.75;;;1.73;;
21833;SDS011;11079;51.092;3.458;2022-07-29T09:41:49;4.22;;;1.45;;
21833;SDS011;11079;51.092;3.458;2022-07-29T09:44:19;3.42;;;1.25;;
21833;SDS011;11079;51.092;3.458;2022-07-29T09:46:56;4.53;;;1.30;;
21833;SDS011;11079;51.092;3.458;2022-07-29T09:49:36;4.40;;;1.30;;
21833;SDS011;11079;51.092;3.458;2022-07-29T09:52:16;4.20;;;1.50;;
21833;SDS011;11079;51.092;3.458;2022-07-29T09:54:41;5.55;;;1.58;;
21833;SDS011;11079;51.092;3.458;2022-07-29T09:57:08;2.60;;;1.48;;
21833;SDS011;11079;51.092;3.458;2022-07-29T09:59:55;4.35;;;1.85;;
21833;SDS011;11079;51.092;3.458;2022-07-29T10:02:35;2.33;;;1.05;;
21833;SDS011;11079;51.092;3.458;2022-07-29T10:05:02;4.15;;;1.90;;
21833;SDS011;11079;51.092;3.458;2022-07-29T10:07:43;3.50;;;1.50;;
21833;SDS011;11079;51.092;3.458;2022-07-29T10:10:10;4.65;;;1.55;;
21833;SDS011;11079;51.092;3.458;2022-07-29T10:12:48;3.88;;;1.65;;
21833;SDS011;11079;51.092;3.458;2022-07-29T10:15:15;5.28;;;2.13;;
21833;SDS011;11079;51.092;3.458;2022-07-29T10:17:40;6.25;;;1.70;;
21833;SDS011;11079;51.092;3.458;2022-07-29T10:20:07;5.35;;;1.67;;
21833;SDS011;11079;51.092;3.458;2022-07-29T10:22:33;4.10;;;1.83;;
21833;SDS011;11079;51.092;3.458;2022-07-29T10:24:59;5.82;;;1.60;;
21833;SDS011;11079;51.092;3.458;2022-07-29T10:27:25;4.25;;;1.35;;
21833;SDS011;11079;51.092;3.458;2022-07-29T10:29:50;3.60;;;1.48;;
21833;SDS011;11079;51.092;3.458;2022-07-29T10:32:20;1.85;;;1.13;;
21833;SDS011;11079;51.092;3.458;2022-07-29T10:43:21;4.20;;;1.50;;
21833;SDS011;11079;51.092;3.458;2022-07-29T10:45:57;5.43;;;1.42;;
21833;SDS011;11079;51.092;3.458;2022-07-29T10:48:24;2.80;;;1.40;;
21833;SDS011;11079;51.092;3.458;2022-07-29T10:53:24;4.70;;;1.17;;
21833;SDS011;11079;51.092;3.458;2022-07-29T10:55:50;4.78;;;1.30;;
21833;SDS011;11079;51.092;3.458;2022-07-29T10:58:21;4.40;;;1.45;;
21833;SDS011;11079;51.092;3.458;2022-07-29T11:00:49;4.47;;;1.65;;
21833;SDS011;11079;51.092;3.458;2022-07-29T11:06:07;3.15;;;1.50;;
21833;SDS011;11079;51.092;3.458;2022-07-29T11:08:33;3.97;;;1.83;;
21833;SDS011;11079;51.092;3.458;2022-07-29T11:13:50;4.38;;;1.58;;
21833;SDS011;11079;51.092;3.458;2022-07-29T11:16:17;3.90;;;1.67;;
21833;SDS011;11079;51.092;3.458;2022-07-29T11:21:40;4.20;;;1.50;;
21833;SDS011;11079;51.092;3.458;2022-07-29T11:24:14;3.78;;;1.50;;
21833;SDS011;11079;51.092;3.458;2022-07-29T11:27:10;3.42;;;1.27;;
21833;SDS011;11079;51.092;3.458;2022-07-29T11:29:39;4.88;;;1.45;;
21833;SDS011;11079;51.092;3.458;2022-07-29T11:32:12;3.05;;;1.50;;
21833;SDS011;11079;51.092;3.458;2022-07-29T11:34:44;6.10;;;1.48;;
21833;SDS011;11079;51.092;3.458;2022-07-29T11:50:12;3.65;;;1.65;;
21833;SDS011;11079;51.092;3.458;2022-07-29T11:52:40;3.92;;;1.55;;
21833;SDS011;11079;51.092;3.458;2022-07-29T11:55:09;2.80;;;1.05;;
21833;SDS011;11079;51.092;3.458;2022-07-29T11:57:37;5.72;;;1.80;;
21833;SDS011;11079;51.092;3.458;2022-07-29T12:00:04;2.45;;;1.35;;
21833;SDS011;11079;51.092;3.458;2022-07-29T12:02:42;5.95;;;1.92;;
21833;SDS011;11079;51.092;3.458;2022-07-29T12:05:11;3.95;;;1.75;;
21833;SDS011;11079;51.092;3.458;2022-07-29T12:07:37;3.95;;;1.65;;
21833;SDS011;11079;51.092;3.458;2022-07-29T12:10:04;6.18;;;1.80;;
21833;SDS011;11079;51.092;3.458;2022-07-29T12:12:31;6.70;;;1.92;;
21833;SDS011;11079;51.092;3.458;2022-07-29T12:14:57;4.07;;;1.35;;
21833;SDS011;11079;51.092;3.458;2022-07-29T12:17:29;7.03;;;1.40;;
21833;SDS011;11079;51.092;3.458;2022-07-29T12:20:00;6.22;;;1.30;;
21833;SDS011;11079;51.092;3.458;2022-07-29T12:22:29;3.90;;;1.38;;
21833;SDS011;11079;51.092;3.458;2022-07-29T12:25:00;2.42;;;1.70;;
21833;SDS011;11079;51.092;3.458;2022-07-29T12:27:37;2.95;;;1.45;;
21833;SDS011;11079;51.092;3.458;2022-07-29T12:30:14;5.28;;;1.90;;
21833;SDS011;11079;51.092;3.458;2022-07-29T12:32:47;6.10;;;1.73;;
21833;SDS011;11079;51.092;3.458;2022-07-29T12:35:18;5.35;;;1.80;;
21833;SDS011;11079;51.092;3.458;2022-07-29T12:37:44;5.47;;;1.77;;
21833;SDS011;11079;51.092;3.458;2022-07-29T12:40:19;5.75;;;2.28;;
21833;SDS011;11079;51.092;3.458;2022-07-29T12:45:49;3.72;;;1.25;;
21833;SDS011;11079;51.092;3.458;2022-07-29T12:51:04;6.55;;;2.55;;
21833;SDS011;11079;51.092;3.458;2022-07-29T12:53:32;3.65;;;1.88;;
21833;SDS011;11079;51.092;3.458;2022-07-29T12:55:58;3.80;;;1.70;;
21833;SDS011;11079;51.092;3.458;2022-07-29T13:00:59;4.75;;;1.50;;
21833;SDS011;11079;51.092;3.458;2022-07-29T13:11:45;3.92;;;1.75;;
21833;SDS011;11079;51.092;3.458;2022-07-29T13:14:13;7.00;;;2.15;;
21833;SDS011;11079;51.092;3.458;2022-07-29T13:17:07;6.28;;;2.40;;
21833;SDS011;11079;51.092;3.458;2022-07-29T13:19:52;5.35;;;1.85;;
21833;SDS011;11079;51.092;3.458;2022-07-29T13:22:34;3.95;;;1.70;;
21833;SDS011;11079;51.092;3.458;2022-07-29T13:25:01;5.32;;;2.05;;
21833;SDS011;11079;51.092;3.458;2022-07-29T13:27:28;5.15;;;2.05;;
21833;SDS011;11079;51.092;3.458;2022-07-29T13:29:57;6.63;;;2.10;;
21833;SDS011;11079;51.092;3.458;2022-07-29T13:32:25;6.15;;;1.77;;
21833;SDS011;11079;51.092;3.458;2022-07-29T13:34:52;5.05;;;2.33;;
21833;SDS011;11079;51.092;3.458;2022-07-29T13:37:18;2.85;;;1.55;;
21833;SDS011;11079;51.092;3.458;2022-07-29T13:39:44;5.68;;;1.65;;
21833;SDS011;11079;51.092;3.458;2022-07-29T13:42:10;5.28;;;1.58;;
21833;SDS011;11079;51.092;3.458;2022-07-29T13:44:39;5.30;;;1.77;;
21833;SDS011;11079;51.092;3.458;2022-07-29T13:47:06;5.43;;;1.80;;
21833;SDS011;11079;51.092;3.458;2022-07-29T13:49:33;8.00;;;1.70;;
21833;SDS011;11079;51.092;3.458;2022-07-29T13:52:00;2.28;;;1.30;;
21833;SDS011;11079;51.092;3.458;2022-07-29T13:54:27;5.03;;;1.77;;
21833;SDS011;11079;51.092;3.458;2022-07-29T13:56:53;4.45;;;1.73;;
21833;SDS011;11079;51.092;3.458;2022-07-29T13:59:19;3.05;;;1.48;;
21833;SDS011;11079;51.092;3.458;2022-07-29T14:01:44;5.13;;;1.50;;
21833;SDS011;11079;51.092;3.458;2022-07-29T14:04:10;5.03;;;1.40;;
21833;SDS011;11079;51.092;3.458;2022-07-29T14:06:36;6.28;;;1.83;;
21833;SDS011;11079;51.092;3.458;2022-07-29T14:09:03;4.70;;;1.65;;
21833;SDS011;11079;51.092;3.458;2022-07-29T14:11:31;6.68;;;2.17;;
21833;SDS011;11079;51.092;3.458;2022-07-29T14:13:57;2.35;;;1.80;;
21833;SDS011;11079;51.092;3.458;2022-07-29T14:16:24;4.82;;;1.67;;
21833;SDS011;11079;51.092;3.458;2022-07-29T14:18:49;2.75;;;1.75;;
21833;SDS011;11079;51.092;3.458;2022-07-29T14:21:15;5.45;;;1.63;;
21833;SDS011;11079;51.092;3.458;2022-07-29T14:23:40;5.28;;;1.63;;
21833;SDS011;11079;51.092;3.458;2022-07-29T14:26:07;6.30;;;1.63;;
21833;SDS011;11079;51.092;3.458;2022-07-29T14:28:32;4.15;;;1.80;;
21833;SDS011;11079;51.092;3.458;2022-07-29T14:30:58;3.40;;;1.52;;
21833;SDS011;11079;51.092;3.458;2022-07-29T14:33:25;4.07;;;1.73;;
21833;SDS011;11079;51.092;3.458;2022-07-29T14:35:50;5.53;;;1.98;;
21833;SDS011;11079;51.092;3.458;2022-07-29T14:38:16;3.67;;;1.48;;
21833;SDS011;11079;51.092;3.458;2022-07-29T14:40:42;5.65;;;2.10;;
21833;SDS011;11079;51.092;3.458;2022-07-29T14:43:07;4.95;;;1.77;;
21833;SDS011;11079;51.092;3.458;2022-07-29T14:45:33;3.53;;;1.95;;
21833;SDS011;11079;51.092;3.458;2022-07-29T14:47:58;5.53;;;1.80;;
21833;SDS011;11079;51.092;3.458;2022-07-29T14:50:25;4.45;;;1.88;;
21833;SDS011;11079;51.092;3.458;2022-07-29T14:52:51;5.63;;;1.95;;
21833;SDS011;11079;51.092;3.458;2022-07-29T14:55:17;4.43;;;1.75;;
21833;SDS011;11079;51.092;3.458;2022-07-29T14:57:42;3.47;;;2.00;;
21833;SDS011;11079;51.092;3.458;2022-07-29T15:00:09;2.90;;;1.48;;
21833;SDS011;11079;51.092;3.458;2022-07-29T15:02:36;5.57;;;2.13;;
21833;SDS011;11079;51.092;3.458;2022-07-29T15:05:02;6.18;;;2.00;;
21833;SDS011;11079;51.092;3.458;2022-07-29T15:07:28;6.28;;;2.10;;
21833;SDS011;11079;51.092;3.458;2022-07-29T15:09:53;5.63;;;2.30;;
21833;SDS011;11079;51.092;3.458;2022-07-29T15:12:19;6.90;;;2.10;;
21833;SDS011;11079;51.092;3.458;2022-07-29T15:14:45;7.13;;;2.17;;
21833;SDS011;11079;51.092;3.458;2022-07-29T15:17:12;6.30;;;2.00;;
21833;SDS011;11079;51.092;3.458;2022-07-29T15:19:38;8.30;;;2.00;;
21833;SDS011;11079;51.092;3.458;2022-07-29T15:22:04;4.70;;;1.85;;
21833;SDS011;11079;51.092;3.458;2022-07-29T15:24:30;6.32;;;2.97;;
21833;SDS011;11079;51.092;3.458;2022-07-29T15:26:56;6.53;;;1.85;;
21833;SDS011;11079;51.092;3.458;2022-07-29T15:29:22;9.55;;;2.72;;
21833;SDS011;11079;51.092;3.458;2022-07-29T15:31:48;5.50;;;2.17;;
21833;SDS011;11079;51.092;3.458;2022-07-29T15:34:14;3.53;;;2.22;;
21833;SDS011;11079;51.092;3.458;2022-07-29T15:36:41;5.95;;;2.28;;
21833;SDS011;11079;51.092;3.458;2022-07-29T15:39:06;4.55;;;2.38;;
21833;SDS011;11079;51.092;3.458;2022-07-29T15:41:32;4.55;;;2.05;;
21833;SDS011;11079;51.092;3.458;2022-07-29T15:43:58;5.57;;;2.13;;
21833;SDS011;11079;51.092;3.458;2022-07-29T15:46:24;4.72;;;2.30;;
21833;SDS011;11079;51.092;3.458;2022-07-29T15:49:08;5.03;;;2.28;;
21833;SDS011;11079;51.092;3.458;2022-07-29T15:51:40;3.83;;;2.13;;
21833;SDS011;11079;51.092;3.458;2022-07-29T15:54:06;6.45;;;2.35;;